Time;durP1;ratioP1;P1;durP2;ratioP2;P2;SDS_P1;SDS_P2;PMS_P1;PMS_P2;Temp;Humidity;BMP_temperature;BMP_pressure;BME280_temperature;BME280_humidity;BME280_pressure;Samples;Min_cycle;Max_cycle;Signal;HPM_P1;HPM_P2
2022/01/07 00:01:14;;;;;;;5.82;2.17;;;22.00;70.50;;;;;;7868894;28;20193;-54
2022/01/07 00:04:59;;;;;;;5.70;2.15;;;22.00;70.40;;;;;;7869175;28;20177;-54
2022/01/07 00:08:45;;;;;;;4.05;1.98;;;21.90;69.80;;;;;;7868938;28;20252;-54
2022/01/07 00:12:30;;;;;;;4.40;1.90;;;21.90;69.20;;;;;;7869349;28;20188;-56
2022/01/07 00:16:16;;;;;;;4.90;1.90;;;21.90;68.70;;;;;;7869019;28;20294;-56
2022/01/07 00:20:05;;;;;;;5.15;2.13;;;21.80;68.00;;;;;;7868773;28;20264;-56
2022/01/07 00:23:51;;;;;;;7.22;1.90;;;21.80;67.80;;;;;;7868990;28;20227;-52
2022/01/07 00:27:37;;;;;;;3.50;2.00;;;21.80;67.10;;;;;;7868639;28;20193;-55
2022/01/07 00:31:22;;;;;;;2.28;1.60;;;21.70;67.00;;;;;;7868923;28;20177;-55
2022/01/07 00:35:09;;;;;;;4.13;2.08;;;21.70;66.80;;;;;;7868813;28;20184;-55
2022/01/07 00:38:55;;;;;;;4.53;1.80;;;21.70;66.80;;;;;;7868553;28;20177;-55
2022/01/07 00:42:41;;;;;;;4.10;1.63;;;21.70;66.60;;;;;;7868786;28;20204;-57
2022/01/07 00:46:26;;;;;;;5.43;1.88;;;21.70;66.60;;;;;;7868779;28;20220;-52
2022/01/07 00:50:14;;;;;;;4.15;1.80;;;21.60;66.40;;;;;;7868506;28;20181;-56
2022/01/07 00:54:00;;;;;;;3.60;1.70;;;21.60;66.40;;;;;;7868878;28;20536;-57
2022/01/07 00:57:45;;;;;;;4.50;1.73;;;21.60;66.40;;;;;;7868421;28;20221;-58
2022/01/07 01:01:31;;;;;;;2.28;1.50;;;21.60;66.40;;;;;;7868824;28;20632;-55
2022/01/07 01:05:17;;;;;;;4.50;1.98;;;21.50;66.10;;;;;;7868766;28;20177;-56
2022/01/07 01:09:03;;;;;;;2.42;1.35;;;21.50;66.10;;;;;;7868569;28;20180;-55
2022/01/07 01:12:48;;;;;;;2.80;1.50;;;21.50;66.00;;;;;;7874131;28;20181;-56
2022/01/07 01:16:36;;;;;;;4.82;2.08;;;21.50;65.90;;;;;;7873884;28;20197;-57
2022/01/07 01:20:22;;;;;;;4.55;1.20;;;21.50;65.80;;;;;;7873572;28;20166;-57
2022/01/07 01:24:08;;;;;;;3.83;1.40;;;21.40;65.80;;;;;;7873771;28;20173;-58
2022/01/07 01:27:54;;;;;;;2.40;1.35;;;21.40;66.40;;;;;;7872771;28;20280;-57
2022/01/07 01:31:39;;;;;;;3.42;1.30;;;21.40;65.50;;;;;;7873687;28;20181;-56
2022/01/07 01:35:25;;;;;;;2.20;1.10;;;21.40;65.40;;;;;;7873322;28;20200;-54
2022/01/07 01:39:12;;;;;;;4.55;1.30;;;21.40;65.40;;;;;;7873149;28;20643;-52
2022/01/07 01:42:58;;;;;;;4.80;1.60;;;21.40;65.20;;;;;;7873172;28;20219;-54
2022/01/07 01:46:43;;;;;;;2.28;1.20;;;21.40;65.20;;;;;;7873066;28;20825;-55
2022/01/07 01:50:29;;;;;;;2.42;1.30;;;21.30;65.10;;;;;;7872852;28;20169;-55
2022/01/07 01:54:15;;;;;;;2.97;1.27;;;21.30;65.00;;;;;;7872990;28;20165;-56
2022/01/07 01:58:00;;;;;;;1.75;1.10;;;21.30;64.90;;;;;;7873115;28;20277;-56
2022/01/07 02:01:46;;;;;;;2.65;1.23;;;21.30;65.00;;;;;;7872662;28;20209;-53
2022/01/07 02:05:32;;;;;;;3.70;1.13;;;21.20;64.80;;;;;;7872595;28;20219;-56
2022/01/07 02:09:22;;;;;;;5.72;1.23;;;21.20;64.80;;;;;;7872427;28;20170;-52
2022/01/07 02:13:10;;;;;;;1.75;1.13;;;21.20;64.60;;;;;;7872824;28;20216;-57
2022/01/07 02:17:11;;;;;;;2.38;1.10;;;21.20;64.70;;;;;;7872663;28;20193;-55
2022/01/07 02:20:57;;;;;;;2.53;1.20;;;21.20;64.60;;;;;;7871645;28;20215;-53
2022/01/07 02:24:42;;;;;;;2.15;1.40;;;21.20;64.50;;;;;;7872554;28;20651;-57
2022/01/07 02:28:29;;;;;;;3.22;1.40;;;21.20;64.50;;;;;;7872016;28;20189;-55
2022/01/07 02:32:15;;;;;;;2.75;1.17;;;21.10;64.40;;;;;;7871830;28;20232;-56
2022/01/07 02:36:08;;;;;;;2.45;1.10;;;21.10;64.50;;;;;;7871646;28;20701;-53
2022/01/07 02:39:54;;;;;;;2.03;0.98;;;21.10;64.40;;;;;;7871252;28;20178;-55
2022/01/07 02:43:39;;;;;;;3.00;1.20;;;21.10;64.40;;;;;;7871599;28;20258;-56
2022/01/07 02:47:34;;;;;;;3.38;1.05;;;21.10;64.40;;;;;;7871142;28;20193;-55
2022/01/07 02:51:20;;;;;;;5.53;1.60;;;21.10;64.30;;;;;;7871236;28;20180;-56
2022/01/07 02:55:06;;;;;;;2.92;1.10;;;21.10;64.20;;;;;;7870928;28;20189;-55
2022/01/07 02:58:52;;;;;;;2.88;1.02;;;21.00;64.20;;;;;;7870694;28;20851;-57
2022/01/07 03:02:37;;;;;;;3.25;1.40;;;21.00;64.20;;;;;;7870718;28;20570;-55
2022/01/07 03:06:24;;;;;;;2.80;1.23;;;21.00;64.10;;;;;;7870620;28;20197;-57
2022/01/07 03:10:10;;;;;;;1.83;1.00;;;21.00;64.20;;;;;;7870312;28;20177;-58
2022/01/07 03:13:55;;;;;;;3.63;1.20;;;21.00;64.20;;;;;;7870542;28;20189;-57
2022/01/07 03:17:41;;;;;;;4.38;1.25;;;20.90;64.20;;;;;;7869981;28;20225;-56
2022/01/07 03:21:27;;;;;;;3.25;1.15;;;20.90;64.10;;;;;;7870335;28;20197;-57
2022/01/07 03:25:14;;;;;;;1.77;1.10;;;20.90;64.10;;;;;;7870133;28;20539;-57
2022/01/07 03:28:59;;;;;;;2.70;1.10;;;20.80;63.90;;;;;;7869808;28;20184;-58
2022/01/07 03:32:46;;;;;;;2.53;1.10;;;20.80;64.00;;;;;;7869925;28;20209;-58
2022/01/07 03:36:32;;;;;;;2.17;1.05;;;20.80;64.00;;;;;;7869907;28;20245;-56
2022/01/07 03:40:19;;;;;;;5.35;1.10;;;20.80;64.10;;;;;;7869605;28;20227;-54
2022/01/07 03:44:04;;;;;;;1.92;1.02;;;20.80;63.90;;;;;;7869640;28;20203;-56
2022/01/07 03:47:54;;;;;;;1.92;1.10;;;20.80;63.90;;;;;;7869323;28;20682;-56
2022/01/07 03:51:39;;;;;;;3.28;1.13;;;20.80;63.90;;;;;;7869591;28;20176;-55
2022/01/07 03:55:27;;;;;;;3.70;1.27;;;20.80;63.70;;;;;;7869473;28;20841;-56
2022/01/07 03:59:13;;;;;;;5.18;1.45;;;20.80;63.70;;;;;;7869225;28;20759;-55
2022/01/07 04:03:08;;;;;;;2.88;1.30;;;20.70;63.70;;;;;;7869350;28;20209;-53
2022/01/07 04:06:53;;;;;;;1.90;1.27;;;20.70;63.80;;;;;;7869281;28;20250;-56
2022/01/07 04:10:39;;;;;;;4.18;1.65;;;20.70;63.70;;;;;;7868981;28;20161;-55
2022/01/07 04:14:25;;;;;;;3.08;1.30;;;20.70;63.70;;;;;;7869157;28;20177;-53
2022/01/07 04:18:11;;;;;;;3.67;1.70;;;20.70;63.70;;;;;;7868896;28;20268;-54
2022/01/07 04:21:56;;;;;;;3.22;1.63;;;20.80;63.90;;;;;;7869103;28;20259;-56
2022/01/07 04:25:42;;;;;;;3.05;1.17;;;20.70;63.90;;;;;;7869364;28;20242;-56
2022/01/07 04:29:27;;;;;;;2.75;1.30;;;20.80;64.10;;;;;;7868923;28;20227;-56
2022/01/07 04:33:20;;;;;;;2.25;1.20;;;20.80;64.00;;;;;;7869195;28;20189;-56
2022/01/07 04:37:06;;;;;;;3.85;1.35;;;20.80;64.10;;;;;;7869333;28;20219;-56
2022/01/07 04:40:52;;;;;;;2.42;1.13;;;20.80;64.30;;;;;;7869058;28;20218;-57
2022/01/07 04:44:40;;;;;;;3.45;1.30;;;20.80;64.20;;;;;;7870222;28;20177;-56
2022/01/07 04:48:25;;;;;;;3.95;2.10;;;20.80;64.50;;;;;;7874702;28;20216;-56
2022/01/07 04:52:11;;;;;;;9.45;1.60;;;20.70;63.10;;;;;;7874872;28;20177;-58
2022/01/07 04:55:59;;;;;;;6.05;1.83;;;20.80;63.70;;;;;;7874653;28;20212;-56
2022/01/07 04:59:44;;;;;;;4.13;1.92;;;20.80;63.90;;;;;;7874383;28;20169;-56
2022/01/07 05:03:30;;;;;;;3.83;1.58;;;20.80;63.90;;;;;;7874324;28;20209;-57
2022/01/07 05:07:16;;;;;;;7.15;1.77;;;20.80;63.90;;;;;;7874280;28;20254;-58
2022/01/07 05:11:01;;;;;;;4.85;1.50;;;20.80;64.00;;;;;;7873923;28;20189;-57
2022/01/07 05:14:47;;;;;;;4.65;1.90;;;20.80;64.10;;;;;;7874030;28;20182;-58
2022/01/07 05:18:32;;;;;;;4.45;2.03;;;20.80;64.10;;;;;;7873549;28;20197;-57
2022/01/07 05:22:18;;;;;;;4.85;1.70;;;20.70;64.20;;;;;;7873799;28;20299;-56
2022/01/07 05:26:06;;;;;;;10.70;2.00;;;20.70;64.30;;;;;;7846433;28;20691;-56
2022/01/07 05:29:52;;;;;;;5.15;1.90;;;20.80;64.10;;;;;;7841531;28;20178;-58
2022/01/07 05:33:37;;;;;;;4.13;2.05;;;20.70;63.60;;;;;;7841915;28;20182;-58
2022/01/07 05:37:23;;;;;;;2.90;2.00;;;20.70;63.20;;;;;;7841963;28;20229;-58
2022/01/07 05:41:08;;;;;;;12.10;2.45;;;20.70;63.10;;;;;;7841849;28;20698;-58
2022/01/07 05:44:55;;;;;;;98.07;5.85;;;20.80;64.00;;;;;;7842274;28;20193;-54
2022/01/07 05:48:42;;;;;;;34.88;3.83;;;20.80;64.00;;;;;;7841719;28;20205;-54
2022/01/07 05:52:28;;;;;;;35.05;4.00;;;20.80;63.90;;;;;;7841805;28;20257;-55
2022/01/07 05:56:13;;;;;;;25.42;3.63;;;20.80;63.60;;;;;;7822707;28;20229;-54
2022/01/07 05:59:59;;;;;;;31.95;3.90;;;20.80;63.60;;;;;;7841566;28;20174;-55
2022/01/07 06:03:45;;;;;;;18.08;3.42;;;20.70;63.50;;;;;;7841472;28;20202;-55
2022/01/07 06:07:30;;;;;;;26.55;3.33;;;20.70;63.60;;;;;;7841286;28;20233;-55
2022/01/07 06:11:17;;;;;;;18.95;3.17;;;20.70;64.00;;;;;;7841426;28;20914;-57
2022/01/07 06:15:03;;;;;;;24.20;3.88;;;20.70;64.00;;;;;;7841326;28;20182;-57
2022/01/07 06:18:55;;;;;;;20.40;3.15;;;20.70;64.00;;;;;;7837356;28;20279;-55
2022/01/07 06:22:41;;;;;;;40.92;3.90;;;20.70;64.00;;;;;;7839143;28;20247;-54
2022/01/07 06:26:26;;;;;;;27.65;3.38;;;20.70;64.50;;;;;;7840092;28;20221;-54
2022/01/07 06:30:12;;;;;;;15.77;3.25;;;20.70;64.10;;;;;;7839585;28;20553;-55
2022/01/07 06:33:58;;;;;;;15.98;3.03;;;20.70;63.70;;;;;;7838718;28;20625;-56
2022/01/07 06:37:44;;;;;;;8.75;2.95;;;20.70;63.70;;;;;;7837640;28;20251;-57
2022/01/07 06:41:30;;;;;;;12.18;3.17;;;20.70;63.70;;;;;;7839199;28;20206;-55
2022/01/07 06:45:15;;;;;;;12.65;2.95;;;20.70;63.60;;;;;;7839777;28;20182;-52
2022/01/07 06:49:00;;;;;;;10.30;3.33;;;20.70;63.60;;;;;;7838449;28;20174;-56
2022/01/07 06:52:46;;;;;;;11.15;3.60;;;20.60;63.40;;;;;;7838982;28;20297;-57
2022/01/07 06:56:31;;;;;;;8.38;3.17;;;20.70;64.30;;;;;;7838699;28;20709;-55
2022/01/07 07:00:17;;;;;;;9.57;3.63;;;20.70;63.30;;;;;;7838921;28;20173;-56
2022/01/07 07:04:03;;;;;;;6.82;3.38;;;20.70;63.30;;;;;;7838953;28;20210;-56
2022/01/07 07:07:48;;;;;;;7.28;3.20;;;20.70;63.30;;;;;;7838068;28;20201;-52
2022/01/07 07:11:34;;;;;;;8.05;3.40;;;20.70;63.40;;;;;;7838586;28;20236;-57
2022/01/07 07:15:19;;;;;;;6.97;3.25;;;20.70;63.40;;;;;;7838301;28;20219;-56
2022/01/07 07:19:05;;;;;;;10.07;3.47;;;20.70;63.30;;;;;;7838210;28;20170;-57
2022/01/07 07:22:50;;;;;;;4.43;3.00;;;20.70;63.20;;;;;;7839038;28;20213;-57
2022/01/07 07:26:36;;;;;;;12.80;3.55;;;20.70;63.40;;;;;;7839056;28;20695;-57
2022/01/07 07:30:22;;;;;;;5.32;2.97;;;20.70;63.90;;;;;;7838766;28;20200;-57
2022/01/07 07:34:21;;;;;;;9.35;3.35;;;20.70;64.00;;;;;;7838643;28;20177;-58
2022/01/07 07:38:06;;;;;;;12.35;3.63;;;20.70;64.20;;;;;;7838085;28;20212;-58
2022/01/07 07:41:52;;;;;;;9.85;3.60;;;20.80;64.10;;;;;;7838418;28;20699;-58
2022/01/07 07:45:37;;;;;;;11.70;3.88;;;20.80;64.00;;;;;;7838184;28;20201;-58
2022/01/07 07:49:23;;;;;;;17.80;4.18;;;20.80;63.70;;;;;;7838291;28;20181;-55
2022/01/07 07:53:08;;;;;;;8.13;4.22;;;20.80;63.60;;;;;;7838395;28;20224;-53
2022/01/07 07:56:57;;;;;;;7.93;4.00;;;20.80;63.40;;;;;;7890672;22;20274;-57
2022/01/07 08:00:43;;;;;;;6.75;4.20;;;20.80;63.40;;;;;;7868661;28;20230;-60
2022/01/07 08:04:29;;;;;;;7.68;3.95;;;20.80;63.40;;;;;;7869270;28;20169;-59
2022/01/07 08:08:15;;;;;;;9.77;4.50;;;20.80;63.30;;;;;;7868269;28;20193;-61
2022/01/07 08:12:15;;;;;;;9.10;4.32;;;20.80;63.30;;;;;;7869962;28;20642;-60
2022/01/07 08:16:05;;;;;;;7.07;3.78;;;20.80;63.00;;;;;;7869037;28;20227;-61
2022/01/07 08:19:51;;;;;;;8.88;5.00;;;20.80;63.00;;;;;;7867640;28;20188;-60
2022/01/07 08:23:40;;;;;;;12.43;5.72;;;20.80;62.70;;;;;;7868751;28;20343;-60
2022/01/07 08:27:25;;;;;;;13.18;5.55;;;20.90;62.80;;;;;;7868678;28;20189;-60
2022/01/07 08:34:58;;;;;;;16.77;7.00;;;20.80;62.70;;;;;;7868566;28;20205;-61
2022/01/07 08:38:44;;;;;;;14.82;7.93;;;20.80;62.60;;;;;;7868092;28;20181;-60
2022/01/07 08:42:29;;;;;;;16.23;7.30;;;20.90;62.70;;;;;;7868416;28;20592;-60
2022/01/07 08:46:15;;;;;;;15.10;9.23;;;20.90;62.70;;;;;;7868263;28;20193;-61
2022/01/07 08:50:01;;;;;;;15.75;8.07;;;20.90;62.80;;;;;;7867652;28;20185;-61
2022/01/07 08:53:46;;;;;;;16.02;7.10;;;20.90;63.00;;;;;;7868311;28;20269;-62
2022/01/07 08:57:32;;;;;;;17.52;7.57;;;20.90;63.20;;;;;;7867385;28;20217;-58
2022/01/07 09:01:18;;;;;;;14.25;7.45;;;20.90;63.20;;;;;;7868023;28;20197;-60
2022/01/07 09:05:04;;;;;;;12.90;7.05;;;20.90;63.20;;;;;;7868236;28;20177;-62
2022/01/07 09:08:50;;;;;;;12.98;7.45;;;20.90;63.20;;;;;;7867254;28;20170;-61
2022/01/07 09:12:35;;;;;;;16.98;6.72;;;20.90;63.10;;;;;;7867895;28;20189;-61
2022/01/07 09:16:23;;;;;;;12.60;6.18;;;21.00;63.80;;;;;;7868118;28;20201;-61
2022/01/07 09:20:10;;;;;;;15.25;6.20;;;21.00;63.60;;;;;;7867466;28;20185;-61
2022/01/07 09:23:55;;;;;;;15.90;6.53;;;21.00;63.30;;;;;;7867536;28;20656;-61
2022/01/07 09:27:42;;;;;;;15.13;5.72;;;21.00;63.10;;;;;;7867042;28;20216;-60
2022/01/07 09:31:27;;;;;;;13.82;6.00;;;21.00;63.10;;;;;;7870090;28;20231;-60
2022/01/07 09:35:14;;;;;;;11.73;5.30;;;21.00;63.40;;;;;;7873230;28;20197;-61
2022/01/07 09:39:00;;;;;;;18.75;6.00;;;21.00;63.70;;;;;;7872279;28;20185;-62
2022/01/07 09:43:00;;;;;;;18.58;6.25;;;21.10;63.50;;;;;;7872823;28;20278;-61
2022/01/07 09:46:45;;;;;;;19.33;5.05;;;21.10;64.00;;;;;;7872738;28;20285;-61
2022/01/07 09:50:32;;;;;;;11.77;5.47;;;21.10;63.50;;;;;;7872073;28;20170;-61
2022/01/07 09:54:18;;;;;;;9.95;4.90;;;21.10;63.40;;;;;;7872902;28;20272;-61
2022/01/07 09:58:04;;;;;;;10.18;5.22;;;21.10;63.30;;;;;;7871860;28;20209;-61
2022/01/07 10:01:56;;;;;;;10.15;4.82;;;21.10;63.30;;;;;;7872719;28;20201;-61
2022/01/07 10:05:49;;;;;;;11.63;4.78;;;21.10;63.30;;;;;;7872584;28;20186;-61
2022/01/07 10:09:35;;;;;;;15.23;4.47;;;21.10;63.30;;;;;;7872425;28;20200;-61
2022/01/07 10:13:20;;;;;;;9.15;4.85;;;21.10;63.20;;;;;;7873339;28;20178;-61
2022/01/07 10:17:06;;;;;;;10.80;5.13;;;21.10;63.40;;;;;;7872907;28;20221;-60
2022/01/07 10:20:51;;;;;;;11.00;4.80;;;21.20;63.40;;;;;;7871607;28;20173;-60
2022/01/07 10:25:02;;;;;;;11.75;4.72;;;21.20;63.70;;;;;;7872336;28;20613;-60
2022/01/07 10:28:49;;;;;;;19.25;4.57;;;21.20;64.30;;;;;;7871478;28;20185;-60
2022/01/07 10:32:34;;;;;;;11.30;4.32;;;21.20;63.90;;;;;;7871804;28;20712;-61
2022/01/07 10:36:23;;;;;;;7.75;3.88;;;21.20;65.00;;;;;;7871400;28;20590;-60
2022/01/07 10:40:38;;;;;;;8.52;4.00;;;21.20;64.40;;;;;;7870219;28;20181;-61
2022/01/07 10:44:23;;;;;;;11.07;3.78;;;21.20;64.60;;;;;;7870411;28;20212;-60
2022/01/07 10:48:10;;;;;;;10.65;3.95;;;21.30;65.00;;;;;;7870413;28;20216;-60
2022/01/07 10:51:55;;;;;;;8.77;4.00;;;21.30;65.10;;;;;;7870812;28;20537;-60
2022/01/07 10:55:55;;;;;;;8.25;4.03;;;21.30;65.10;;;;;;7870749;28;20216;-61
2022/01/07 10:59:41;;;;;;;11.52;3.88;;;21.30;65.20;;;;;;7870687;28;20260;-60
2022/01/07 11:03:32;;;;;;;6.90;3.92;;;21.30;65.10;;;;;;7870302;28;20200;-60
2022/01/07 11:07:18;;;;;;;5.00;3.38;;;21.30;65.20;;;;;;7870646;28;20526;-61
2022/01/07 11:11:04;;;;;;;6.68;4.00;;;21.30;65.30;;;;;;7869656;28;20173;-60
2022/01/07 11:14:49;;;;;;;4.97;3.20;;;21.30;65.30;;;;;;7870343;28;20211;-60
2022/01/07 11:18:40;;;;;;;10.48;3.80;;;21.40;65.40;;;;;;7869180;28;20177;-61
2022/01/07 11:22:27;;;;;;;7.00;2.92;;;21.40;65.30;;;;;;7869994;28;20696;-61
2022/01/07 11:26:16;;;;;;;8.20;3.20;;;21.40;65.40;;;;;;7869933;28;20641;-61
2022/01/07 11:30:11;;;;;;;5.80;3.20;;;21.40;65.50;;;;;;7869069;28;20291;-60
2022/01/07 11:34:18;;;;;;;5.55;3.05;;;21.40;65.50;;;;;;7869811;28;20185;-60
2022/01/07 11:38:04;;;;;;;6.88;3.30;;;21.40;65.50;;;;;;7868983;28;20600;-60
2022/01/07 11:41:56;;;;;;;5.57;2.95;;;21.40;65.50;;;;;;7869395;28;20282;-61
2022/01/07 11:45:43;;;;;;;4.55;2.88;;;21.40;65.50;;;;;;7869476;28;20783;-61
2022/01/07 11:49:35;;;;;;;11.50;3.28;;;21.40;65.60;;;;;;7868647;28;20550;-60
2022/01/07 11:53:40;;;;;;;5.00;3.15;;;21.40;65.60;;;;;;7868678;28;20181;-61
2022/01/07 11:57:26;;;;;;;6.50;3.17;;;21.40;65.80;;;;;;7868888;28;20205;-61
2022/01/07 12:01:26;;;;;;;6.32;3.25;;;21.40;65.70;;;;;;7868997;28;20196;-60
2022/01/07 12:05:41;;;;;;;5.85;2.90;;;21.40;65.70;;;;;;7869297;28;20193;-60
2022/01/07 12:09:29;;;;;;;4.10;2.75;;;21.40;65.80;;;;;;7833211;28;20190;-60
2022/01/07 12:13:14;;;;;;;4.90;2.80;;;21.40;65.60;;;;;;7834131;28;20197;-61
2022/01/07 12:17:02;;;;;;;6.65;3.10;;;21.40;65.50;;;;;;7834056;28;20210;-62
2022/01/07 12:20:50;;;;;;;5.10;2.92;;;21.40;65.50;;;;;;7833106;28;20193;-62
2022/01/07 12:24:35;;;;;;;5.20;2.70;;;21.40;65.60;;;;;;7833905;28;20235;-61
2022/01/07 12:28:21;;;;;;;4.47;2.80;;;21.40;66.40;;;;;;7832998;28;20201;-61
2022/01/07 12:32:09;;;;;;;4.88;2.88;;;21.40;65.50;;;;;;7833527;28;20198;-61
2022/01/07 12:35:55;;;;;;;4.82;2.60;;;21.40;65.50;;;;;;7833564;28;20233;-62
2022/01/07 12:39:46;;;;;;;8.10;2.70;;;21.40;65.60;;;;;;7832976;28;20197;-60
2022/01/07 12:43:34;;;;;;;5.68;2.67;;;21.50;65.80;;;;;;7835394;28;20274;-61
2022/01/07 12:47:21;;;;;;;4.68;2.75;;;21.40;65.60;;;;;;7868366;28;20284;-61
2022/01/07 12:51:08;;;;;;;4.07;2.78;;;21.50;65.80;;;;;;7867823;28;20181;-61
2022/01/07 12:55:06;;;;;;;5.43;2.47;;;21.50;65.80;;;;;;7868238;28;20259;-62
2022/01/07 12:58:52;;;;;;;6.40;2.65;;;21.50;65.80;;;;;;7867485;28;20197;-61
2022/01/07 13:02:41;;;;;;;4.07;2.67;;;21.40;65.80;;;;;;7868385;28;20743;-62
2022/01/07 13:06:28;;;;;;;5.57;2.85;;;21.40;65.80;;;;;;7871026;28;20197;-61
2022/01/07 13:10:21;;;;;;;4.38;2.40;;;21.40;65.80;;;;;;7873224;28;20197;-61
2022/01/07 13:14:09;;;;;;;5.82;2.75;;;21.40;65.90;;;;;;7873899;28;20264;-61
2022/01/07 13:17:54;;;;;;;5.18;2.72;;;21.40;65.90;;;;;;7873038;28;20201;-61
2022/01/07 13:21:42;;;;;;;4.50;2.63;;;21.40;66.00;;;;;;7873478;28;20197;-61
2022/01/07 13:25:28;;;;;;;4.43;2.35;;;21.40;66.10;;;;;;7873437;28;20216;-60
2022/01/07 13:29:19;;;;;;;13.13;2.63;;;21.40;65.90;;;;;;7872712;28;20214;-60
2022/01/07 13:33:15;;;;;;;10.13;2.72;;;21.40;66.10;;;;;;7873419;28;20256;-60
2022/01/07 13:37:04;;;;;;;16.17;3.88;;;21.40;66.10;;;;;;7873436;28;20225;-60
2022/01/07 13:41:00;;;;;;;19.25;3.35;;;21.40;66.10;;;;;;7872681;28;20173;-59
2022/01/07 13:44:58;;;;;;;18.00;3.17;;;21.40;65.90;;;;;;7873151;28;20246;-60
2022/01/07 13:48:56;;;;;;;8.38;2.90;;;21.40;66.10;;;;;;7872138;28;20239;-61
2022/01/07 13:52:42;;;;;;;17.83;4.05;;;21.40;65.80;;;;;;7873550;28;20185;-61
2022/01/07 13:56:27;;;;;;;34.22;3.40;;;21.40;66.00;;;;;;7872579;28;20209;-60
2022/01/07 14:00:13;;;;;;;20.40;3.60;;;21.50;65.80;;;;;;7871134;28;20747;-59
2022/01/07 14:03:58;;;;;;;21.13;3.80;;;21.50;65.90;;;;;;7872461;28;20347;-61
2022/01/07 14:07:49;;;;;;;17.05;3.45;;;21.40;66.00;;;;;;7871685;28;20243;-61
2022/01/07 14:11:34;;;;;;;17.35;3.55;;;21.40;65.80;;;;;;7872181;28;20283;-61
2022/01/07 14:15:23;;;;;;;17.25;4.00;;;21.40;66.10;;;;;;7872093;28;20219;-60
2022/01/07 14:19:08;;;;;;;29.15;4.95;;;21.50;65.80;;;;;;7870280;28;20543;-59
2022/01/07 14:22:54;;;;;;;23.42;4.03;;;21.40;65.80;;;;;;7871922;28;20227;-61
2022/01/07 14:26:47;;;;;;;12.68;4.78;;;21.40;65.80;;;;;;7871716;28;20204;-60
2022/01/07 14:30:32;;;;;;;21.38;4.88;;;21.50;65.80;;;;;;7907322;22;20177;-54
2022/01/07 14:34:18;;;;;;;13.68;4.25;;;21.50;65.90;;;;;;7840627;28;20189;-53
2022/01/07 14:38:04;;;;;;;15.63;4.20;;;21.50;65.50;;;;;;7839812;28;20708;-55
2022/01/07 14:41:50;;;;;;;18.55;4.20;;;21.40;65.40;;;;;;7840319;28;20774;-55
2022/01/07 14:45:35;;;;;;;9.25;3.70;;;21.40;65.40;;;;;;7840230;28;20547;-55
2022/01/07 14:49:21;;;;;;;14.07;4.05;;;21.40;65.60;;;;;;7839500;28;20178;-55
2022/01/07 14:53:06;;;;;;;12.02;4.05;;;21.40;65.50;;;;;;7839994;28;20239;-55
2022/01/07 14:56:54;;;;;;;5.32;3.67;;;21.40;65.70;;;;;;7839860;28;20189;-57
2022/01/07 15:00:42;;;;;;;11.75;4.80;;;21.40;65.60;;;;;;7838966;28;20247;-56
2022/01/07 15:04:27;;;;;;;12.13;4.78;;;21.40;65.60;;;;;;7839700;28;20209;-54
2022/01/07 15:08:12;;;;;;;11.05;4.63;;;21.40;65.50;;;;;;7839555;28;20224;-57
2022/01/07 15:11:58;;;;;;;11.82;5.15;;;21.40;65.50;;;;;;7840018;28;20571;-58
2022/01/07 15:19:38;;;;;;;10.05;5.90;;;21.40;65.50;;;;;;7838877;28;20178;-57
2022/01/07 15:23:24;;;;;;;11.50;5.63;;;21.40;65.40;;;;;;7839274;28;20217;-57
2022/01/07 15:27:09;;;;;;;11.68;6.30;;;21.40;65.40;;;;;;7839093;28;20194;-55
2022/01/07 15:30:55;;;;;;;9.07;6.40;;;21.40;65.30;;;;;;7837888;28;20202;-57
2022/01/07 15:34:40;;;;;;;9.85;5.55;;;21.50;65.30;;;;;;7839162;28;20643;-56
2022/01/07 15:38:26;;;;;;;10.50;6.38;;;21.50;65.40;;;;;;7838089;28;20178;-57
2022/01/07 15:42:11;;;;;;;13.68;5.40;;;21.50;65.20;;;;;;7838362;28;20205;-57
2022/01/07 15:45:57;;;;;;;11.98;5.65;;;21.60;65.20;;;;;;7838539;28;20232;-56
2022/01/07 15:49:42;;;;;;;14.07;5.38;;;21.60;65.20;;;;;;7837708;28;20181;-57
2022/01/07 15:53:28;;;;;;;8.73;4.95;;;21.60;65.00;;;;;;7838324;28;20310;-57
2022/01/07 15:57:13;;;;;;;9.05;4.60;;;21.70;65.00;;;;;;7838314;28;20856;-57
2022/01/07 16:00:59;;;;;;;9.15;5.18;;;21.70;65.00;;;;;;7837201;28;20213;-57
2022/01/07 16:04:44;;;;;;;8.15;5.03;;;21.70;64.80;;;;;;7838028;28;20543;-58
2022/01/07 16:08:31;;;;;;;7.22;4.95;;;21.80;64.80;;;;;;7837605;28;20818;-58
2022/01/07 16:12:17;;;;;;;6.75;4.72;;;21.80;64.80;;;;;;7838302;28;20190;-57
2022/01/07 16:16:02;;;;;;;9.93;5.20;;;21.80;64.80;;;;;;7837903;28;20177;-58
2022/01/07 16:19:48;;;;;;;8.73;4.97;;;21.90;64.70;;;;;;7837092;28;20256;-55
2022/01/07 16:23:34;;;;;;;8.68;4.90;;;21.90;64.60;;;;;;7837585;28;20288;-54
2022/01/07 16:27:19;;;;;;;8.77;4.70;;;22.00;64.50;;;;;;7838240;28;20625;-56
2022/01/07 16:31:04;;;;;;;7.28;4.40;;;22.00;64.40;;;;;;7836819;28;20236;-56
2022/01/07 16:34:50;;;;;;;6.40;4.32;;;22.00;64.30;;;;;;7837670;28;20269;-57
2022/01/07 16:38:36;;;;;;;6.63;4.20;;;22.00;64.20;;;;;;7836970;28;20174;-55
2022/01/07 16:42:21;;;;;;;11.32;4.57;;;22.10;64.20;;;;;;7841623;28;20213;-56
2022/01/07 16:46:07;;;;;;;9.18;4.70;;;22.10;64.00;;;;;;7843890;28;20527;-55
2022/01/07 16:49:53;;;;;;;8.57;4.43;;;22.20;64.00;;;;;;7843123;28;20196;-55
2022/01/07 16:53:39;;;;;;;7.40;4.60;;;22.20;63.90;;;;;;7843615;28;20213;-57
2022/01/07 16:57:25;;;;;;;6.32;4.40;;;22.20;63.90;;;;;;7843272;28;20182;-56
2022/01/07 17:01:12;;;;;;;6.40;4.35;;;22.30;63.80;;;;;;7842685;28;20216;-57
2022/01/07 17:04:57;;;;;;;7.95;4.60;;;22.30;63.80;;;;;;7843271;28;20208;-56
2022/01/07 17:08:43;;;;;;;7.53;4.43;;;22.30;63.80;;;;;;7842540;28;20178;-57
2022/01/07 17:12:28;;;;;;;6.15;4.60;;;22.40;63.80;;;;;;7843072;28;20194;-57
2022/01/07 17:16:14;;;;;;;5.43;4.30;;;22.40;63.60;;;;;;7843115;28;20210;-56
2022/01/07 17:20:00;;;;;;;8.07;3.95;;;22.50;63.60;;;;;;7842358;28;20213;-57
2022/01/07 17:23:45;;;;;;;7.53;4.40;;;22.50;63.50;;;;;;7842769;28;20245;-56
2022/01/07 17:27:31;;;;;;;6.90;4.30;;;22.60;63.60;;;;;;7842073;28;20453;-57
2022/01/07 17:31:17;;;;;;;5.05;3.65;;;22.60;63.40;;;;;;7842481;28;20255;-56
2022/01/07 17:35:03;;;;;;;6.68;3.80;;;22.60;63.50;;;;;;7842640;28;20182;-57
2022/01/07 17:38:48;;;;;;;6.82;3.97;;;22.70;63.30;;;;;;7841597;28;20170;-57
2022/01/07 17:42:34;;;;;;;6.22;3.92;;;22.70;63.30;;;;;;7841958;28;20213;-56
2022/01/07 17:46:19;;;;;;;10.63;4.25;;;22.70;63.40;;;;;;7842001;28;20248;-55
2022/01/07 17:50:06;;;;;;;9.77;4.00;;;22.70;63.30;;;;;;7841203;28;20201;-58
2022/01/07 17:53:51;;;;;;;4.70;3.70;;;22.80;63.20;;;;;;7841640;28;20205;-55
2022/01/07 17:57:41;;;;;;;8.25;4.00;;;22.80;63.10;;;;;;7841048;28;20182;-57
2022/01/07 18:01:26;;;;;;;8.70;3.63;;;22.80;63.10;;;;;;7841414;28;20241;-57
2022/01/07 18:05:12;;;;;;;6.90;3.67;;;22.80;63.10;;;;;;7841481;28;20177;-57
2022/01/07 18:08:58;;;;;;;7.45;3.92;;;22.90;63.10;;;;;;7840815;28;20212;-58
2022/01/07 18:12:43;;;;;;;4.90;3.47;;;22.90;63.00;;;;;;7841054;28;20229;-57
2022/01/07 18:16:29;;;;;;;4.60;3.28;;;23.00;63.00;;;;;;7841086;28;20276;-57
2022/01/07 18:20:15;;;;;;;5.30;3.65;;;23.00;62.90;;;;;;7840446;28;20639;-57
2022/01/07 18:24:01;;;;;;;6.32;3.85;;;23.00;62.80;;;;;;7840863;28;20210;-57
2022/01/07 18:27:46;;;;;;;6.65;3.72;;;23.00;62.80;;;;;;7840162;28;20189;-56
2022/01/07 18:31:32;;;;;;;5.28;3.60;;;23.10;62.80;;;;;;7840600;28;20718;-54
2022/01/07 18:35:17;;;;;;;8.77;4.28;;;23.10;62.80;;;;;;7840596;28;20181;-57
2022/01/07 18:39:05;;;;;;;7.15;3.90;;;23.10;62.80;;;;;;7839791;28;20248;-56
2022/01/07 18:42:51;;;;;;;5.80;3.90;;;23.20;62.70;;;;;;7840213;28;20225;-56
2022/01/07 18:46:36;;;;;;;6.38;3.50;;;23.20;62.60;;;;;;7840279;28;20182;-57
2022/01/07 18:50:22;;;;;;;5.10;3.95;;;23.20;62.60;;;;;;7839427;28;20722;-54
2022/01/07 18:54:08;;;;;;;5.78;4.00;;;23.20;62.50;;;;;;7840369;28;20189;-55
2022/01/07 18:57:53;;;;;;;6.43;3.92;;;23.20;62.50;;;;;;7839500;28;20598;-55
2022/01/07 19:01:39;;;;;;;6.45;3.90;;;23.20;62.60;;;;;;7839804;28;20220;-56
2022/01/07 19:05:24;;;;;;;8.40;3.50;;;23.10;62.50;;;;;;7839311;28;20541;-55
2022/01/07 19:09:12;;;;;;;5.00;3.80;;;23.10;62.60;;;;;;7839126;28;20297;-56
2022/01/07 19:12:57;;;;;;;6.80;3.85;;;23.00;62.70;;;;;;7840171;28;20205;-56
2022/01/07 19:16:43;;;;;;;4.88;3.40;;;23.00;62.80;;;;;;7839879;28;20249;-55
2022/01/07 19:20:29;;;;;;;5.38;3.80;;;23.00;62.70;;;;;;7839029;28;20561;-56
2022/01/07 19:24:14;;;;;;;3.50;3.13;;;23.00;62.80;;;;;;7839326;28;20284;-57
2022/01/07 19:28:00;;;;;;;4.93;3.47;;;22.90;62.70;;;;;;7838734;28;20618;-56
2022/01/07 19:31:45;;;;;;;4.38;3.45;;;22.90;62.80;;;;;;7839287;28;20213;-57
2022/01/07 19:35:32;;;;;;;5.03;3.45;;;22.90;63.00;;;;;;7838971;28;20273;-57
2022/01/07 19:39:18;;;;;;;4.85;3.20;;;22.80;62.90;;;;;;7838171;28;20194;-57
2022/01/07 19:43:06;;;;;;;3.30;2.72;;;22.80;62.90;;;;;;7838702;28;20682;-57